createdAt,value
2019-01-08T00:00:24.071Z,95351.09
2019-01-08T00:02:53.470Z,95344.38
2019-01-08T00:05:22.821Z,95333.78
2019-01-08T00:07:52.268Z,95334.22
2019-01-08T00:10:21.972Z,95342.22
2019-01-08T00:12:51.406Z,95330.63
2019-01-08T00:15:22.212Z,95329.18
2019-01-08T00:17:51.536Z,95325.49
2019-01-08T00:20:21.112Z,95322.98
2019-01-08T00:22:52.261Z,95329.27
2019-01-08T00:25:21.646Z,95323.43
2019-01-08T00:27:51.028Z,95323.28
2019-01-08T00:30:20.449Z,95333.05
2019-01-08T00:32:52.047Z,95326.58
2019-01-08T00:35:21.402Z,95329.00
2019-01-08T00:37:50.771Z,95327.34
2019-01-08T00:40:20.162Z,95332.23
2019-01-08T00:42:49.873Z,95329.66
2019-01-08T00:45:19.345Z,95338.73
2019-01-08T00:47:48.997Z,95329.10
2019-01-08T00:50:18.397Z,95337.58
2019-01-08T00:52:47.780Z,95333.43
2019-01-08T00:55:18.142Z,95332.54
2019-01-08T00:57:47.519Z,95329.92
2019-01-08T01:00:17.130Z,95320.59
2019-01-08T01:02:46.558Z,95319.31
2019-01-08T01:05:15.887Z,95326.52
2019-01-08T01:07:45.244Z,95315.54
2019-01-08T01:10:14.541Z,95317.21
2019-01-08T01:12:43.900Z,95312.70
2019-01-08T01:15:13.330Z,95313.52
2019-01-08T01:17:42.709Z,95301.28
2019-01-08T01:20:12.032Z,95305.77
2019-01-08T01:22:41.435Z,95308.73
2019-01-08T01:25:10.858Z,95312.42
2019-01-08T01:27:40.221Z,95312.83
2019-01-08T01:30:10.715Z,95318.58
2019-01-08T01:32:40.145Z,95300.39
2019-01-08T01:35:09.526Z,95302.11
2019-01-08T01:37:38.887Z,95300.39
2019-01-08T01:40:08.188Z,95302.00
2019-01-08T01:42:37.548Z,95302.75
2019-01-08T01:45:06.877Z,95292.12
2019-01-08T01:47:36.199Z,95288.94
2019-01-08T01:50:06.236Z,95301.69
2019-01-08T01:52:35.616Z,95299.58
2019-01-08T01:55:05.122Z,95297.06
2019-01-08T01:57:34.576Z,95285.22
2019-01-08T02:00:05.878Z,95285.97
2019-01-08T02:02:35.258Z,95277.30
2019-01-08T02:05:05.008Z,95280.63
2019-01-08T02:07:34.414Z,95277.20
2019-01-08T02:10:03.818Z,95277.15
2019-01-08T02:12:33.175Z,95272.40
2019-01-08T02:15:02.531Z,95274.07
2019-01-08T02:17:31.922Z,95269.43
2019-01-08T02:20:01.257Z,95265.05
2019-01-08T02:22:30.718Z,95266.40
2019-01-08T02:25:00.267Z,95256.17
2019-01-08T02:27:29.686Z,95264.62
2019-01-08T02:29:59.101Z,95254.91
2019-01-08T02:32:28.630Z,95244.46
2019-01-08T02:34:57.980Z,95245.83
2019-01-08T02:37:27.405Z,95239.24
2019-01-08T02:39:56.759Z,95227.53
2019-01-08T02:42:26.101Z,95232.77
2019-01-08T02:44:55.563Z,95235.59
2019-01-08T02:47:24.952Z,95226.75
2019-01-08T02:49:54.351Z,95226.70
2019-01-08T02:52:23.674Z,95225.52
2019-01-08T02:54:53.023Z,95217.23
2019-01-08T02:57:22.387Z,95214.51
2019-01-08T02:59:51.756Z,95217.16
2019-01-08T03:02:21.219Z,95215.83
2019-01-08T03:04:51.983Z,95211.35
2019-01-08T03:07:21.382Z,95208.83
2019-01-08T03:09:52.802Z,95205.04
2019-01-08T03:12:22.180Z,95206.48
2019-01-08T03:14:51.510Z,95197.77
2019-01-08T03:17:20.839Z,95201.16
2019-01-08T03:19:50.179Z,95200.74
2019-01-08T03:22:21.377Z,95184.92
2019-01-08T03:24:50.734Z,95195.30
2019-01-08T03:27:23.079Z,95203.34
2019-01-08T03:29:52.534Z,95194.39
2019-01-08T03:32:22.044Z,95187.81
2019-01-08T03:34:51.518Z,95191.05
2019-01-08T03:37:21.313Z,95195.55
2019-01-08T03:39:50.670Z,95188.32
2019-01-08T03:42:20.123Z,95184.98
2019-01-08T03:44:49.443Z,95197.43
2019-01-08T03:47:18.829Z,95200.92
2019-01-08T03:49:48.139Z,95187.00
2019-01-08T03:52:17.592Z,95190.33
2019-01-08T03:54:47.130Z,95191.59
2019-01-08T03:57:16.596Z,95185.91
2019-01-08T03:59:45.962Z,95187.34
2019-01-08T04:02:16.585Z,95181.31
2019-01-08T04:04:45.956Z,95183.61
2019-01-08T04:07:15.398Z,95172.73
2019-01-08T04:09:44.718Z,95173.52
2019-01-08T04:12:14.256Z,95175.59
2019-01-08T04:14:43.668Z,95175.47
2019-01-08T04:17:13.060Z,95174.43
2019-01-08T04:19:42.420Z,95172.54
2019-01-08T04:22:12.059Z,95174.04
2019-01-08T04:24:41.561Z,95175.14
2019-01-08T04:27:10.926Z,95167.45
2019-01-08T04:29:50.181Z,95163.72
2019-01-08T04:32:12.920Z,95165.73
2019-01-08T04:34:42.372Z,95164.91
2019-01-08T04:37:11.953Z,95162.00
2019-01-08T04:39:41.371Z,95154.09
2019-01-08T04:42:10.828Z,95144.23
2019-01-08T04:44:40.204Z,95144.29
2019-01-08T04:47:09.755Z,95148.36
2019-01-08T04:49:39.216Z,95142.91
2019-01-08T04:52:08.615Z,95151.00
2019-01-08T04:54:37.982Z,95145.83
2019-01-08T04:57:07.368Z,95147.45
2019-01-08T04:59:36.878Z,95151.16
2019-01-08T05:02:06.419Z,95149.38
2019-01-08T05:04:35.859Z,95149.91
2019-01-08T05:07:05.184Z,95145.91
2019-01-08T05:09:34.593Z,95145.14
2019-01-08T05:12:04.033Z,95147.38
2019-01-08T05:14:33.432Z,95143.60
2019-01-08T05:17:02.801Z,95148.54
2019-01-08T05:19:32.266Z,95143.55
2019-01-08T05:22:01.729Z,95141.89
2019-01-08T05:24:31.327Z,95145.09
2019-01-08T05:27:00.674Z,95137.35
2019-01-08T05:29:30.037Z,95138.33
2019-01-08T05:31:59.631Z,95130.99
2019-01-08T05:34:29.034Z,95126.52
2019-01-08T05:36:58.426Z,95131.28
2019-01-08T05:39:27.863Z,95126.52
2019-01-08T05:41:57.310Z,95132.48
2019-01-08T05:44:26.665Z,95130.28
2019-01-08T05:46:56.430Z,95135.70
2019-01-08T05:49:26.125Z,95129.73
2019-01-08T05:51:57.531Z,95122.63
2019-01-08T05:54:27.138Z,95126.47
2019-01-08T05:56:56.516Z,95122.81
2019-01-08T05:59:25.930Z,95118.95
2019-01-08T06:01:55.289Z,95124.05
2019-01-08T06:04:24.702Z,95124.50
2019-01-08T06:06:56.582Z,95139.03
2019-01-08T06:09:26.021Z,95123.42
2019-01-08T06:11:55.354Z,95133.12
2019-01-08T06:14:24.748Z,95120.22
2019-01-08T06:16:54.142Z,95119.72
2019-01-08T06:19:23.910Z,95111.89
2019-01-08T06:21:53.228Z,95119.06
2019-01-08T06:24:22.560Z,95122.66
2019-01-08T06:26:51.878Z,95116.80
2019-01-08T06:29:21.238Z,95121.01
2019-01-08T06:31:50.642Z,95120.20
2019-01-08T06:34:19.975Z,95127.42
2019-01-08T06:36:49.331Z,95130.30
2019-01-08T06:39:18.821Z,95119.06
2019-01-08T06:41:48.317Z,95125.24
2019-01-08T06:44:17.657Z,95120.14
2019-01-08T06:46:47.062Z,95111.81
2019-01-08T06:49:16.763Z,95109.68
2019-01-08T06:51:46.100Z,95107.72
2019-01-08T06:54:15.433Z,95105.41
2019-01-08T06:56:44.769Z,95108.88
2019-01-08T06:59:14.165Z,95119.27
2019-01-08T07:01:43.635Z,95102.23
2019-01-08T07:04:13.043Z,95112.32
2019-01-08T07:06:44.534Z,95102.79
2019-01-08T07:09:13.941Z,95100.73
2019-01-08T07:11:46.059Z,95096.09
2019-01-08T07:14:15.818Z,95098.89
2019-01-08T07:16:45.185Z,95092.89
2019-01-08T07:19:14.520Z,95082.63
2019-01-08T07:21:43.861Z,95082.33
2019-01-08T07:24:13.305Z,95098.45
2019-01-08T07:26:42.725Z,95091.66
2019-01-08T07:29:12.116Z,95093.94
2019-01-08T07:31:41.511Z,95093.27
2019-01-08T07:34:10.889Z,95092.87
2019-01-08T07:36:40.306Z,95110.14
2019-01-08T07:39:09.651Z,95102.00
2019-01-08T07:41:39.010Z,95087.00
2019-01-08T07:44:08.417Z,95094.88
2019-01-08T07:46:37.826Z,95090.76
2019-01-08T07:49:07.169Z,95085.88
2019-01-08T07:51:36.498Z,95089.38
2019-01-08T07:54:05.877Z,95083.13
2019-01-08T07:56:35.200Z,95082.94
2019-01-08T07:59:04.558Z,95088.37
2019-01-08T08:01:34.011Z,95075.98
2019-01-08T08:04:03.461Z,95070.94
2019-01-08T08:06:32.864Z,95067.09
2019-01-08T08:09:02.168Z,95061.53
2019-01-08T08:11:31.577Z,95066.86
2019-01-08T08:14:01.019Z,95061.14
2019-01-08T08:16:30.414Z,95055.83
2019-01-08T08:18:59.767Z,95055.95
2019-01-08T08:21:29.122Z,95059.02
2019-01-08T08:23:58.496Z,95059.55
2019-01-08T08:26:27.871Z,95059.73
2019-01-08T08:28:57.238Z,95061.48
2019-01-08T08:31:26.663Z,95063.27
2019-01-08T08:33:56.144Z,95050.91
2019-01-08T08:36:25.515Z,95045.13
2019-01-08T08:38:54.887Z,95045.66
2019-01-08T08:41:24.293Z,95053.88
2019-01-08T08:43:53.711Z,95050.91
2019-01-08T08:46:26.120Z,95049.31
2019-01-08T08:48:55.777Z,95045.33
2019-01-08T08:51:25.218Z,95042.27
2019-01-08T08:53:54.638Z,95039.72
2019-01-08T08:56:24.022Z,95035.15
2019-01-08T08:58:53.518Z,95035.14
2019-01-08T09:01:22.941Z,95025.67
2019-01-08T09:03:52.333Z,95022.42
2019-01-08T09:06:21.752Z,95017.74
2019-01-08T09:08:51.203Z,95017.02
2019-01-08T09:11:22.634Z,95004.28
2019-01-08T09:13:51.956Z,95008.52
2019-01-08T09:16:21.414Z,95006.97
2019-01-08T09:18:51.331Z,95000.20
2019-01-08T09:21:20.766Z,94994.11
2019-01-08T09:23:52.072Z,94984.61
2019-01-08T09:26:21.479Z,94974.27
2019-01-08T09:28:50.888Z,94977.19
2019-01-08T09:31:20.318Z,94970.36
2019-01-08T09:33:49.675Z,94958.72
2019-01-08T09:36:19.106Z,94952.20
2019-01-08T09:38:48.493Z,94954.18
2019-01-08T09:41:17.855Z,94943.52
2019-01-08T09:43:47.501Z,94934.94
2019-01-08T09:46:17.007Z,94943.39
2019-01-08T09:48:46.399Z,94932.92
2019-01-08T09:51:15.870Z,94922.17
2019-01-08T09:53:45.252Z,94917.98
2019-01-08T09:56:14.684Z,94915.45
2019-01-08T09:58:44.677Z,94910.08
2019-01-08T10:01:14.070Z,94906.00
2019-01-08T10:03:43.420Z,94896.02
2019-01-08T10:06:12.857Z,94885.77
2019-01-08T10:08:42.202Z,94880.69
2019-01-08T10:11:11.598Z,94868.46
2019-01-08T10:13:40.951Z,94868.69
2019-01-08T10:16:10.265Z,94871.59
2019-01-08T10:18:39.584Z,94859.66
2019-01-08T10:21:09.117Z,94849.98
2019-01-08T10:23:38.540Z,94843.39
2019-01-08T10:26:07.881Z,94837.44
2019-01-08T10:28:37.224Z,94833.34
2019-01-08T10:31:06.628Z,94829.05
2019-01-08T10:33:36.012Z,94820.55
2019-01-08T10:36:05.403Z,94807.00
2019-01-08T10:38:34.720Z,94803.76
2019-01-08T10:41:04.071Z,94796.22
2019-01-08T10:43:33.518Z,94785.85
2019-01-08T10:46:02.881Z,94774.78
2019-01-08T10:48:32.233Z,94775.85
2019-01-08T10:51:01.677Z,94771.52
2019-01-08T10:53:31.051Z,94768.32
2019-01-08T10:56:00.422Z,94755.05
2019-01-08T10:58:29.824Z,94756.59
2019-01-08T11:00:59.236Z,94750.42
2019-01-08T11:03:28.648Z,94741.09
2019-01-08T11:05:58.967Z,94731.34
2019-01-08T11:08:28.339Z,94729.36
2019-01-08T11:10:57.674Z,94724.13
2019-01-08T11:13:27.032Z,94718.03
2019-01-08T11:15:56.396Z,94710.69
2019-01-08T11:18:25.757Z,94706.90
2019-01-08T11:20:55.110Z,94709.95
2019-01-08T11:23:24.519Z,94691.22
2019-01-08T11:25:53.837Z,94681.37
2019-01-08T11:28:23.158Z,94679.88
2019-01-08T11:30:52.531Z,94673.77
2019-01-08T11:33:21.885Z,94667.41
2019-01-08T11:35:51.233Z,94659.97
2019-01-08T11:38:20.603Z,94659.85
2019-01-08T11:40:50.005Z,94655.97
2019-01-08T11:43:19.373Z,94652.05
2019-01-08T11:45:48.866Z,94651.72
2019-01-08T11:48:18.213Z,94658.02
2019-01-08T11:50:47.571Z,94645.17
2019-01-08T11:53:16.907Z,94631.22
2019-01-08T11:55:46.294Z,94628.62
2019-01-08T11:58:15.714Z,94634.13
2019-01-08T12:00:45.084Z,94625.86
2019-01-08T12:03:14.503Z,94625.71
2019-01-08T12:05:43.827Z,94614.64
2019-01-08T12:08:13.183Z,94615.45
2019-01-08T12:10:42.541Z,94604.84
2019-01-08T12:13:11.916Z,94602.73
2019-01-08T12:15:41.287Z,94601.86
2019-01-08T12:18:10.662Z,94592.41
2019-01-08T12:20:40.070Z,94588.05
2019-01-08T12:23:09.406Z,94589.16
2019-01-08T12:25:38.792Z,94575.56
2019-01-08T12:28:08.190Z,94576.38
2019-01-08T12:30:37.594Z,94583.03
2019-01-08T12:33:07.046Z,94570.06
2019-01-08T12:35:36.935Z,94564.27
2019-01-08T12:38:10.119Z,94561.50
2019-01-08T12:40:39.497Z,94562.73
2019-01-08T12:43:09.352Z,94564.31
2019-01-08T12:45:38.695Z,94562.56
2019-01-08T12:48:08.072Z,94563.77
2019-01-08T12:50:37.387Z,94557.48
2019-01-08T12:53:06.709Z,94555.80
2019-01-08T12:55:36.047Z,94543.97
2019-01-08T12:58:05.383Z,94540.36
2019-01-08T13:00:34.866Z,94533.36
2019-01-08T13:03:04.181Z,94536.80
2019-01-08T13:05:35.950Z,94526.50
2019-01-08T13:08:05.337Z,94525.20
2019-01-08T13:10:34.727Z,94518.57
2019-01-08T13:13:04.091Z,94515.52
2019-01-08T13:15:33.524Z,94506.09
2019-01-08T13:18:02.899Z,94508.70
2019-01-08T13:20:32.363Z,94498.55
2019-01-08T13:23:01.944Z,94496.94
2019-01-08T13:25:31.489Z,94493.87
2019-01-08T13:28:00.890Z,94489.73
2019-01-08T13:30:30.301Z,94489.55
2019-01-08T13:32:59.698Z,94493.33
2019-01-08T13:35:29.147Z,94485.38
2019-01-08T13:37:58.611Z,94482.63
2019-01-08T13:40:27.958Z,94485.14
2019-01-08T13:42:57.318Z,94485.28
2019-01-08T13:45:26.719Z,94473.69
2019-01-08T13:47:56.064Z,94477.09
2019-01-08T13:50:25.714Z,94479.19
2019-01-08T13:52:55.103Z,94474.34
2019-01-08T13:55:24.450Z,94472.37
2019-01-08T13:57:53.858Z,94465.20
2019-01-08T14:00:23.251Z,94461.35
2019-01-08T14:02:52.556Z,94464.22
2019-01-08T14:05:22.049Z,94466.30
2019-01-08T14:07:51.390Z,94457.11
2019-01-08T14:10:20.775Z,94446.26
2019-01-08T14:12:51.567Z,94446.36
2019-01-08T14:15:20.941Z,94435.14
2019-01-08T14:17:50.319Z,94435.23
2019-01-08T14:20:20.215Z,94427.53
2019-01-08T14:22:49.703Z,94419.37
2019-01-08T14:25:22.756Z,94432.29
2019-01-08T14:27:52.240Z,94425.66
2019-01-08T14:30:21.725Z,94427.02
2019-01-08T14:32:51.104Z,94417.66
2019-01-08T14:35:20.532Z,94423.53
2019-01-08T14:37:49.982Z,94420.80
2019-01-08T14:40:19.396Z,94404.01
2019-01-08T14:42:51.155Z,94404.63
2019-01-08T14:45:20.532Z,94402.81
2019-01-08T14:47:49.951Z,94406.92
2019-01-08T14:50:19.363Z,94392.52
2019-01-08T14:52:48.750Z,94387.64
2019-01-08T14:55:18.125Z,94389.67
2019-01-08T14:57:49.175Z,94389.12
2019-01-08T15:00:18.498Z,94379.81
2019-01-08T15:02:49.685Z,94386.61
2019-01-08T15:05:18.903Z,94379.48
2019-01-08T15:07:48.299Z,94380.25
2019-01-08T15:10:17.633Z,94383.31
2019-01-08T15:12:48.578Z,94383.92
2019-01-08T15:15:17.976Z,94384.41
2019-01-08T15:17:47.347Z,94385.89
2019-01-08T15:20:16.772Z,94387.52
2019-01-08T15:22:46.371Z,94390.97
2019-01-08T15:25:15.791Z,94391.70
2019-01-08T15:27:45.217Z,94393.47
2019-01-08T15:30:14.693Z,94392.98
2019-01-08T15:32:44.135Z,94385.29
2019-01-08T15:35:13.498Z,94386.17
2019-01-08T15:37:42.889Z,94381.84
2019-01-08T15:40:12.265Z,94382.20
2019-01-08T15:42:41.703Z,94380.39
2019-01-08T15:45:11.081Z,94374.80
2019-01-08T15:47:40.487Z,94368.83
2019-01-08T15:50:09.867Z,94378.86
2019-01-08T15:52:39.243Z,94371.58
2019-01-08T15:55:08.622Z,94377.22
2019-01-08T15:57:38.041Z,94379.77
2019-01-08T16:00:08.751Z,94378.86
2019-01-08T16:02:38.124Z,94371.83
2019-01-08T16:05:08.219Z,94366.09
2019-01-08T16:07:37.580Z,94373.78
2019-01-08T16:23:01.799Z,94369.08
2019-01-08T16:25:31.163Z,94377.69
2019-01-08T16:28:00.538Z,94379.77
2019-01-08T16:30:29.934Z,94377.41
2019-01-08T21:28:34.115Z,94219.51
2019-01-08T21:31:03.492Z,94218.88
2019-01-08T21:33:32.863Z,94224.50
2019-01-08T21:36:02.241Z,94226.67
2019-01-08T21:38:31.768Z,94222.61
2019-01-08T21:41:01.165Z,94223.42
2019-01-08T21:43:30.534Z,94223.32
2019-01-08T21:45:59.879Z,94222.66
2019-01-08T21:48:29.361Z,94217.98
2019-01-08T21:50:59.101Z,94214.61
2019-01-08T21:53:28.447Z,94213.24
2019-01-08T21:55:59.855Z,94208.36
2019-01-08T21:58:29.193Z,94201.02
2019-01-08T22:00:58.633Z,94194.77
2019-01-08T22:03:27.978Z,94193.51
2019-01-08T22:05:57.340Z,94201.11
2019-01-08T22:08:26.705Z,94195.84
2019-01-08T22:10:56.042Z,94197.87
2019-01-08T22:13:25.374Z,94194.14
2019-01-08T22:15:54.755Z,94186.16
2019-01-08T22:18:24.121Z,94184.82
2019-01-08T22:20:53.652Z,94182.84
2019-01-08T22:23:23.039Z,94170.88
2019-01-08T22:25:52.375Z,94179.39
2019-01-08T22:28:21.766Z,94177.47
2019-01-08T22:30:51.220Z,94165.45
2019-01-08T22:33:20.582Z,94164.25
2019-01-08T22:35:49.991Z,94158.20
2019-01-08T22:38:19.313Z,94158.83
2019-01-08T22:40:48.670Z,94154.85
2019-01-08T22:43:18.176Z,94155.58
2019-01-08T22:45:47.481Z,94146.70
2019-01-08T22:48:16.853Z,94142.61
2019-01-08T22:50:46.302Z,94145.61
2019-01-08T22:53:16.432Z,94142.53
2019-01-08T22:55:45.878Z,94132.86
2019-01-08T22:58:15.444Z,94136.19
2019-01-08T23:01:03.382Z,94133.55
2019-01-08T23:03:32.914Z,94132.59
2019-01-08T23:06:02.286Z,94129.69
2019-01-08T23:08:34.893Z,94132.22
2019-01-08T23:11:04.331Z,94140.72
2019-01-08T23:13:33.861Z,94134.74
2019-01-08T23:16:03.196Z,94130.75
2019-01-08T23:18:32.609Z,94127.94
2019-01-08T23:21:01.940Z,94124.42
2019-01-08T23:23:31.323Z,94124.70
2019-01-08T23:26:00.673Z,94119.52
2019-01-08T23:28:30.151Z,94111.38
2019-01-08T23:30:59.499Z,94111.75
2019-01-08T23:33:28.888Z,94112.48
2019-01-08T23:35:58.308Z,94114.28
2019-01-08T23:38:27.657Z,94123.70
2019-01-08T23:40:57.029Z,94115.81
2019-01-08T23:43:26.394Z,94107.41
2019-01-08T23:45:55.715Z,94111.67
2019-01-08T23:48:25.083Z,94115.45
2019-01-08T23:50:54.535Z,94105.51
2019-01-08T23:53:30.616Z,94112.28
2019-01-08T23:56:03.780Z,94113.38
2019-01-08T23:58:33.118Z,94117.09
